sensor_id;sensor_type;location;lat;lon;timestamp;pressure;altitude;pressure_sealevel;temperature;humidity
66880;BME280;72009;51.392;10.234;2023-11-21T00:00:10;97550.81;;;3.88;100.00
66880;BME280;72009;51.392;10.234;2023-11-21T00:00:30;97545.38;;;3.88;100.00
66880;BME280;72009;51.392;10.234;2023-11-21T00:00:50;97550.81;;;3.88;100.00
66880;BME280;72009;51.392;10.234;2023-11-21T00:01:11;97549.72;;;3.89;100.00
66880;BME280;72009;51.392;10.234;2023-11-21T00:01:31;97547.81;;;3.89;100.00
66880;BME280;72009;51.392;10.234;2023-11-21T00:01:51;97544.28;;;3.89;100.00
66880;BME280;72009;51.392;10.234;2023-11-21T00:02:12;97547.28;;;3.87;100.00
66880;BME280;72009;51.392;10.234;2023-11-21T00:02:32;97544.56;;;3.87;100.00
66880;BME280;72009;51.392;10.234;2023-11-21T00:02:52;97549.19;;;3.87;100.00
66880;BME280;72009;51.392;10.234;2023-11-21T00:03:12;97548.38;;;3.86;100.00
66880;BME280;72009;51.392;10.234;2023-11-21T00:03:33;97551.38;;;3.85;100.00
66880;BME280;72009;51.392;10.234;2023-11-21T00:03:53;97545.13;;;3.84;100.00
66880;BME280;72009;51.392;10.234;2023-11-21T00:04:13;97538.56;;;3.85;100.00
66880;BME280;72009;51.392;10.234;2023-11-21T00:04:34;97540.50;;;3.85;100.00
66880;BME280;72009;51.392;10.234;2023-11-21T00:04:54;97548.94;;;3.83;100.00
66880;BME280;72009;51.392;10.234;2023-11-21T00:05:15;97546.22;;;3.83;100.00
66880;BME280;72009;51.392;10.234;2023-11-21T00:05:35;97548.94;;;3.83;100.00
66880;BME280;72009;51.392;10.234;2023-11-21T00:05:56;97552.75;;;3.82;100.00
66880;BME280;72009;51.392;10.234;2023-11-21T00:06:16;97543.78;;;3.82;100.00
66880;BME280;72009;51.392;10.234;2023-11-21T00:06:36;97548.13;;;3.83;100.00
66880;BME280;72009;51.392;10.234;2023-11-21T00:06:57;97545.41;;;3.83;100.00
66880;BME280;72009;51.392;10.234;2023-11-21T00:07:17;97548.13;;;3.83;100.00
66880;BME280;72009;51.392;10.234;2023-11-21T00:07:38;97556.28;;;3.83;100.00
66880;BME280;72009;51.392;10.234;2023-11-21T00:07:58;97552.47;;;3.84;100.00
66880;BME280;72009;51.392;10.234;2023-11-21T00:08:18;97550.84;;;3.83;100.00
66880;BME280;72009;51.392;10.234;2023-11-21T00:08:38;97553.03;;;3.81;100.00
66880;BME280;72009;51.392;10.234;2023-11-21T00:08:59;97551.41;;;3.80;100.00
66880;BME280;72009;51.392;10.234;2023-11-21T00:09:19;97545.97;;;3.80;100.00
66880;BME280;72009;51.392;10.234;2023-11-21T00:09:40;97545.97;;;3.80;100.00
66880;BME280;72009;51.392;10.234;2023-11-21T00:10:00;97552.50;;;3.79;100.00
66880;BME280;72009;51.392;10.234;2023-11-21T00:10:20;97550.56;;;3.79;100.00
66880;BME280;72009;51.392;10.234;2023-11-21T00:10:41;97548.94;;;3.78;100.00
66880;BME280;72009;51.392;10.234;2023-11-21T00:11:01;97551.41;;;3.80;100.00
66880;BME280;72009;51.392;10.234;2023-11-21T00:11:21;97551.41;;;3.80;100.00
66880;BME280;72009;51.392;10.234;2023-11-21T00:11:42;97552.22;;;3.80;100.00
66880;BME280;72009;51.392;10.234;2023-11-21T00:12:02;97547.56;;;3.81;100.00
66880;BME280;72009;51.392;10.234;2023-11-21T00:12:23;97548.41;;;3.81;100.00
66880;BME280;72009;51.392;10.234;2023-11-21T00:12:43;97556.56;;;3.81;100.00
66880;BME280;72009;51.392;10.234;2023-11-21T00:13:04;97553.56;;;3.83;100.00
66880;BME280;72009;51.392;10.234;2023-11-21T00:13:24;97551.66;;;3.83;100.00
66880;BME280;72009;51.392;10.234;2023-11-21T00:13:44;97545.41;;;3.83;100.00
66880;BME280;72009;51.392;10.234;2023-11-21T00:14:05;97545.41;;;3.83;100.00
66880;BME280;72009;51.392;10.234;2023-11-21T00:14:25;97552.47;;;3.84;100.00
66880;BME280;72009;51.392;10.234;2023-11-21T00:14:45;97556.00;;;3.84;100.00
66880;BME280;72009;51.392;10.234;2023-11-21T00:15:06;97545.94;;;3.85;100.00
66880;BME280;72009;51.392;10.234;2023-11-21T00:15:27;97544.00;;;3.85;100.00
66880;BME280;72009;51.392;10.234;2023-11-21T00:15:47;97551.09;;;3.86;100.00
66880;BME280;72009;51.392;10.234;2023-11-21T00:16:08;97550.00;;;3.87;100.00
66880;BME280;72009;51.392;10.234;2023-11-21T00:16:28;97545.66;;;3.86;100.00
66880;BME280;72009;51.392;10.234;2023-11-21T00:16:48;97546.47;;;3.87;100.00
66880;BME280;72009;51.392;10.234;2023-11-21T00:17:09;97551.38;;;3.85;100.00
66880;BME280;72009;51.392;10.234;2023-11-21T00:17:29;97545.66;;;3.86;100.00
66880;BME280;72009;51.392;10.234;2023-11-21T00:17:49;97544.56;;;3.87;100.00
66880;BME280;72009;51.392;10.234;2023-11-21T00:18:10;97554.63;;;3.87;100.00
66880;BME280;72009;51.392;10.234;2023-11-21T00:18:30;97548.91;;;3.88;100.00
66880;BME280;72009;51.392;10.234;2023-11-21T00:18:50;97548.91;;;3.88;100.00
66880;BME280;72009;51.392;10.234;2023-11-21T00:19:11;97550.81;;;3.88;100.00
66880;BME280;72009;51.392;10.234;2023-11-21T00:19:32;97545.38;;;3.88;100.00
66880;BME280;72009;51.392;10.234;2023-11-21T00:19:53;97542.38;;;3.89;100.00
66880;BME280;72009;51.392;10.234;2023-11-21T00:20:13;97545.09;;;3.89;100.00
66880;BME280;72009;51.392;10.234;2023-11-21T00:20:33;97546.72;;;3.90;100.00
66880;BME280;72009;51.392;10.234;2023-11-21T00:20:54;97549.44;;;3.90;100.00
66880;BME280;72009;51.392;10.234;2023-11-21T00:21:14;97552.16;;;3.90;100.00
66880;BME280;72009;51.392;10.234;2023-11-21T00:21:34;97550.81;;;3.88;100.00
66880;BME280;72009;51.392;10.234;2023-11-21T00:21:54;97550.53;;;3.89;100.00
66880;BME280;72009;51.392;10.234;2023-11-21T00:22:15;97556.78;;;3.90;100.00
66880;BME280;72009;51.392;10.234;2023-11-21T00:22:35;97551.34;;;3.90;100.00
66880;BME280;72009;51.392;10.234;2023-11-21T00:22:56;97554.06;;;3.90;100.00
66880;BME280;72009;51.392;10.234;2023-11-21T00:23:16;97551.34;;;3.90;100.00
66880;BME280;72009;51.392;10.234;2023-11-21T00:23:36;97553.25;;;3.89;100.00
66880;BME280;72009;51.392;10.234;2023-11-21T00:23:56;97557.88;;;3.89;100.00
66880;BME280;72009;51.392;10.234;2023-11-21T00:24:17;97555.16;;;3.89;100.00
66880;BME280;72009;51.392;10.234;2023-11-21T00:24:37;97558.97;;;3.88;100.00
66880;BME280;72009;51.392;10.234;2023-11-21T00:24:57;97556.78;;;3.90;100.00
66880;BME280;72009;51.392;10.234;2023-11-21T00:25:18;97555.16;;;3.89;100.00
66880;BME280;72009;51.392;10.234;2023-11-21T00:25:38;97555.16;;;3.89;100.00
66880;BME280;72009;51.392;10.234;2023-11-21T00:25:58;97558.69;;;3.89;100.00
66880;BME280;72009;51.392;10.234;2023-11-21T00:26:18;97553.53;;;3.88;100.00
66880;BME280;72009;51.392;10.234;2023-11-21T00:26:40;97554.34;;;3.88;100.00
66880;BME280;72009;51.392;10.234;2023-11-21T00:27:00;97559.78;;;3.88;100.00
66880;BME280;72009;51.392;10.234;2023-11-21T00:27:20;97557.06;;;3.88;100.00
66880;BME280;72009;51.392;10.234;2023-11-21T00:27:41;97551.63;;;3.88;100.00
66880;BME280;72009;51.392;10.234;2023-11-21T00:28:01;97561.41;;;3.89;100.00
66880;BME280;72009;51.392;10.234;2023-11-21T00:28:22;97555.97;;;3.89;100.00
66880;BME280;72009;51.392;10.234;2023-11-21T00:28:42;97559.50;;;3.90;100.00
66880;BME280;72009;51.392;10.234;2023-11-21T00:29:02;97555.97;;;3.89;100.00
66880;BME280;72009;51.392;10.234;2023-11-21T00:29:23;97547.28;;;3.87;100.00
66880;BME280;72009;51.392;10.234;2023-11-21T00:29:43;97562.78;;;3.87;100.00
66880;BME280;72009;51.392;10.234;2023-11-21T00:30:04;97551.63;;;3.88;100.00
66880;BME280;72009;51.392;10.234;2023-11-21T00:30:24;97552.44;;;3.89;100.00
66880;BME280;72009;51.392;10.234;2023-11-21T00:30:44;97555.16;;;3.89;100.00
66880;BME280;72009;51.392;10.234;2023-11-21T00:31:05;97552.44;;;3.89;100.00
66880;BME280;72009;51.392;10.234;2023-11-21T00:31:25;97554.06;;;3.90;100.00
66880;BME280;72009;51.392;10.234;2023-11-21T00:31:45;97559.50;;;3.90;100.00
66880;BME280;72009;51.392;10.234;2023-11-21T00:32:07;97548.63;;;3.90;100.00
66880;BME280;72009;51.392;10.234;2023-11-21T00:32:27;97548.63;;;3.90;100.00
66880;BME280;72009;51.392;10.234;2023-11-21T00:32:47;97551.34;;;3.90;100.00
66880;BME280;72009;51.392;10.234;2023-11-21T00:33:07;97554.88;;;3.90;100.00
66880;BME280;72009;51.392;10.234;2023-11-21T00:33:28;97560.31;;;3.90;100.00
66880;BME280;72009;51.392;10.234;2023-11-21T00:33:48;97561.13;;;3.91;100.00
66880;BME280;72009;51.392;10.234;2023-11-21T00:34:08;97558.41;;;3.91;100.00
66880;BME280;72009;51.392;10.234;2023-11-21T00:34:29;97560.06;;;3.92;100.00
66880;BME280;72009;51.392;10.234;2023-11-21T00:34:49;97558.41;;;3.91;100.00
66880;BME280;72009;51.392;10.234;2023-11-21T00:35:09;97550.53;;;3.89;100.00
66880;BME280;72009;51.392;10.234;2023-11-21T00:35:30;97559.78;;;3.88;100.00
66880;BME280;72009;51.392;10.234;2023-11-21T00:35:50;97558.16;;;3.87;100.00
66880;BME280;72009;51.392;10.234;2023-11-21T00:36:10;97554.91;;;3.85;100.00
66880;BME280;72009;51.392;10.234;2023-11-21T00:36:31;97557.63;;;3.85;100.00
66880;BME280;72009;51.392;10.234;2023-11-21T00:36:51;97553.28;;;3.84;100.00
66880;BME280;72009;51.392;10.234;2023-11-21T00:37:12;97560.63;;;3.84;100.00
66880;BME280;72009;51.392;10.234;2023-11-21T00:37:32;97552.47;;;3.84;100.00
66880;BME280;72009;51.392;10.234;2023-11-21T00:37:52;97559.00;;;3.83;100.00
66880;BME280;72009;51.392;10.234;2023-11-21T00:38:13;97560.91;;;3.82;100.00
66880;BME280;72009;51.392;10.234;2023-11-21T00:38:33;97565.00;;;3.80;100.00
66880;BME280;72009;51.392;10.234;2023-11-21T00:38:53;97558.75;;;3.79;100.00
66880;BME280;72009;51.392;10.234;2023-11-21T00:39:13;97557.38;;;3.77;100.00
66880;BME280;72009;51.392;10.234;2023-11-21T00:39:34;97561.47;;;3.79;100.00
66880;BME280;72009;51.392;10.234;2023-11-21T00:39:54;97557.09;;;3.78;100.00
66880;BME280;72009;51.392;10.234;2023-11-21T00:40:15;97555.22;;;3.79;100.00
66880;BME280;72009;51.392;10.234;2023-11-21T00:40:35;97557.38;;;3.77;100.00
66880;BME280;72009;51.392;10.234;2023-11-21T00:40:56;97565.25;;;3.78;100.00
66880;BME280;72009;51.392;10.234;2023-11-21T00:41:16;97561.47;;;3.79;100.00
66880;BME280;72009;51.392;10.234;2023-11-21T00:41:36;97562.28;;;3.80;100.00
66880;BME280;72009;51.392;10.234;2023-11-21T00:41:56;97559.31;;;3.76;100.00
66880;BME280;72009;51.392;10.234;2023-11-21T00:42:17;97559.31;;;3.76;100.00
66880;BME280;72009;51.392;10.234;2023-11-21T00:42:37;97558.50;;;3.75;100.00
66880;BME280;72009;51.392;10.234;2023-11-21T00:42:58;97560.09;;;3.77;100.00
66880;BME280;72009;51.392;10.234;2023-11-21T00:43:18;97562.03;;;3.76;100.00
66880;BME280;72009;51.392;10.234;2023-11-21T00:43:38;97563.94;;;3.75;100.00
66880;BME280;72009;51.392;10.234;2023-11-21T00:43:59;97567.47;;;3.76;100.00
66880;BME280;72009;51.392;10.234;2023-11-21T00:44:20;97571.25;;;3.75;100.00
66880;BME280;72009;51.392;10.234;2023-11-21T00:44:40;97565.03;;;3.74;100.00
66880;BME280;72009;51.392;10.234;2023-11-21T00:45:00;97568.81;;;3.73;100.00
66880;BME280;72009;51.392;10.234;2023-11-21T00:45:21;97562.56;;;3.73;100.00
66880;BME280;72009;51.392;10.234;2023-11-21T00:45:42;97565.56;;;3.71;100.00
66880;BME280;72009;51.392;10.234;2023-11-21T00:46:06;97565.84;;;3.70;100.00
66880;BME280;72009;51.392;10.234;2023-11-21T00:46:26;97566.13;;;3.68;100.00
66880;BME280;72009;51.392;10.234;2023-11-21T00:46:46;97569.66;;;3.69;100.00
66880;BME280;72009;51.392;10.234;2023-11-21T00:47:07;97562.63;;;3.68;100.00
66880;BME280;72009;51.392;10.234;2023-11-21T00:47:27;97567.22;;;3.67;100.00
66880;BME280;72009;51.392;10.234;2023-11-21T00:47:47;97567.22;;;3.67;100.00
66880;BME280;72009;51.392;10.234;2023-11-21T00:48:07;97563.69;;;3.67;100.00
66880;BME280;72009;51.392;10.234;2023-11-21T00:48:28;97567.78;;;3.64;100.00
66880;BME280;72009;51.392;10.234;2023-11-21T00:48:48;97570.78;;;3.63;100.00
66880;BME280;72009;51.392;10.234;2023-11-21T00:49:08;97566.41;;;3.62;100.00
66880;BME280;72009;51.392;10.234;2023-11-21T00:49:29;97565.63;;;3.61;100.00
66880;BME280;72009;51.392;10.234;2023-11-21T00:49:49;97566.97;;;3.58;100.00
66880;BME280;72009;51.392;10.234;2023-11-21T00:50:09;97566.97;;;3.58;100.00
66880;BME280;72009;51.392;10.234;2023-11-21T00:50:30;97569.16;;;3.56;100.00
66880;BME280;72009;51.392;10.234;2023-11-21T00:50:50;97565.66;;;3.56;100.00
66880;BME280;72009;51.392;10.234;2023-11-21T00:51:10;97571.09;;;3.56;100.00
66880;BME280;72009;51.392;10.234;2023-11-21T00:51:31;97569.44;;;3.55;100.00
66880;BME280;72009;51.392;10.234;2023-11-21T00:51:51;97564.00;;;3.55;100.00
66880;BME280;72009;51.392;10.234;2023-11-21T00:52:11;97570.25;;;3.55;100.00
66880;BME280;72009;51.392;10.234;2023-11-21T00:52:32;97570.53;;;3.54;100.00
66880;BME280;72009;51.392;10.234;2023-11-21T00:52:52;97561.56;;;3.53;100.00
66880;BME280;72009;51.392;10.234;2023-11-21T00:53:12;97574.34;;;3.53;100.00
66880;BME280;72009;51.392;10.234;2023-11-21T00:53:33;97567.00;;;3.53;100.00
66880;BME280;72009;51.392;10.234;2023-11-21T00:53:53;97568.91;;;3.53;100.00
66880;BME280;72009;51.392;10.234;2023-11-21T00:54:13;97568.91;;;3.53;100.00
66880;BME280;72009;51.392;10.234;2023-11-21T00:54:33;97566.19;;;3.53;100.00
66880;BME280;72009;51.392;10.234;2023-11-21T00:54:54;97572.16;;;3.55;100.00
66880;BME280;72009;51.392;10.234;2023-11-21T00:55:14;97571.34;;;3.54;100.00
66880;BME280;72009;51.392;10.234;2023-11-21T00:55:34;97569.44;;;3.55;100.00
66880;BME280;72009;51.392;10.234;2023-11-21T00:55:55;97571.09;;;3.56;100.00
66880;BME280;72009;51.392;10.234;2023-11-21T00:56:15;97573.81;;;3.56;100.00
66880;BME280;72009;51.392;10.234;2023-11-21T00:56:36;97571.09;;;3.56;100.00
66880;BME280;72009;51.392;10.234;2023-11-21T00:56:56;97574.34;;;3.58;100.00
66880;BME280;72009;51.392;10.234;2023-11-21T00:57:16;97566.16;;;3.58;100.00
66880;BME280;72009;51.392;10.234;2023-11-21T00:57:37;97573.25;;;3.59;100.00
66880;BME280;72009;51.392;10.234;2023-11-21T00:57:57;97571.59;;;3.58;100.00
66880;BME280;72009;51.392;10.234;2023-11-21T00:58:17;97573.25;;;3.59;100.00
66880;BME280;72009;51.392;10.234;2023-11-21T00:58:38;97575.97;;;3.59;100.00
66880;BME280;72009;51.392;10.234;2023-11-21T00:58:58;97574.84;;;3.60;100.00
66880;BME280;72009;51.392;10.234;2023-11-21T00:59:18;97578.41;;;3.61;100.00
66880;BME280;72009;51.392;10.234;2023-11-21T00:59:38;97569.41;;;3.60;100.00
66880;BME280;72009;51.392;10.234;2023-11-21T00:59:59;97576.50;;;3.61;100.00
66880;BME280;72009;51.392;10.234;2023-11-21T01:00:19;97579.22;;;3.61;100.00
66880;BME280;72009;51.392;10.234;2023-11-21T01:00:39;97576.50;;;3.61;100.00
66880;BME280;72009;51.392;10.234;2023-11-21T01:00:59;97575.69;;;3.61;100.00
66880;BME280;72009;51.392;10.234;2023-11-21T01:01:21;97580.00;;;3.62;100.00
66880;BME280;72009;51.392;10.234;2023-11-21T01:01:41;97576.22;;;3.63;100.00
66880;BME280;72009;51.392;10.234;2023-11-21T01:02:01;97580.00;;;3.62;100.00
66880;BME280;72009;51.392;10.234;2023-11-21T01:02:22;97578.13;;;3.62;100.00
66880;BME280;72009;51.392;10.234;2023-11-21T01:02:45;97581.94;;;3.61;100.00
66880;BME280;72009;51.392;10.234;2023-11-21T01:03:05;97575.13;;;3.58;100.00
66880;BME280;72009;51.392;10.234;2023-11-21T01:03:26;97581.41;;;3.59;100.00
66880;BME280;72009;51.392;10.234;2023-11-21T01:03:46;97584.13;;;3.59;100.00
66880;BME280;72009;51.392;10.234;2023-11-21T01:04:07;97582.75;;;3.56;100.00
66880;BME280;72009;51.392;10.234;2023-11-21T01:04:27;97581.13;;;3.55;100.00
66880;BME280;72009;51.392;10.234;2023-11-21T01:04:47;97584.94;;;3.54;100.00
66880;BME280;72009;51.392;10.234;2023-11-21T01:05:08;97587.66;;;3.54;100.00
66880;BME280;72009;51.392;10.234;2023-11-21T01:05:28;97583.84;;;3.55;100.00
66880;BME280;72009;51.392;10.234;2023-11-21T01:05:48;97580.31;;;3.55;100.00
66880;BME280;72009;51.392;10.234;2023-11-21T01:06:09;97578.41;;;3.55;100.00
66880;BME280;72009;51.392;10.234;2023-11-21T01:06:29;97576.53;;;3.56;100.00
66880;BME280;72009;51.392;10.234;2023-11-21T01:06:49;97578.69;;;3.54;100.00
66880;BME280;72009;51.392;10.234;2023-11-21T01:07:09;97590.13;;;3.56;100.00
66880;BME280;72009;51.392;10.234;2023-11-21T01:07:30;97586.56;;;3.55;100.00
66880;BME280;72009;51.392;10.234;2023-11-21T01:07:50;97590.94;;;3.56;100.00
66880;BME280;72009;51.392;10.234;2023-11-21T01:08:11;97584.69;;;3.56;100.00
66880;BME280;72009;51.392;10.234;2023-11-21T01:08:31;97585.75;;;3.55;100.00
66880;BME280;72009;51.392;10.234;2023-11-21T01:08:52;97580.31;;;3.55;100.00
66880;BME280;72009;51.392;10.234;2023-11-21T01:09:12;97586.84;;;3.54;100.00
66880;BME280;72009;51.392;10.234;2023-11-21T01:09:32;97580.59;;;3.53;100.00
66880;BME280;72009;51.392;10.234;2023-11-21T01:09:53;97591.47;;;3.53;100.00
66880;BME280;72009;51.392;10.234;2023-11-21T01:10:13;97586.56;;;3.55;100.00
66880;BME280;72009;51.392;10.234;2023-11-21T01:10:33;97594.72;;;3.55;100.00
66880;BME280;72009;51.392;10.234;2023-11-21T01:10:54;97583.84;;;3.55;100.00
66880;BME280;72009;51.392;10.234;2023-11-21T01:11:14;97586.56;;;3.55;100.00
66880;BME280;72009;51.392;10.234;2023-11-21T01:11:35;97583.03;;;3.55;100.00
66880;BME280;72009;51.392;10.234;2023-11-21T01:11:55;97583.03;;;3.55;100.00
66880;BME280;72009;51.392;10.234;2023-11-21T01:12:15;97585.75;;;3.55;100.00
66880;BME280;72009;51.392;10.234;2023-11-21T01:12:37;97585.75;;;3.55;100.00
66880;BME280;72009;51.392;10.234;2023-11-21T01:12:57;97577.88;;;3.53;100.00
66880;BME280;72009;51.392;10.234;2023-11-21T01:13:18;97582.22;;;3.54;100.00
66880;BME280;72009;51.392;10.234;2023-11-21T01:13:39;97584.94;;;3.54;100.00
66880;BME280;72009;51.392;10.234;2023-11-21T01:13:59;97584.13;;;3.54;100.00
66880;BME280;72009;51.392;10.234;2023-11-21T01:14:19;97581.41;;;3.54;100.00
66880;BME280;72009;51.392;10.234;2023-11-21T01:14:40;97587.66;;;3.54;100.00
66880;BME280;72009;51.392;10.234;2023-11-21T01:15:00;97587.41;;;3.56;100.00
66880;BME280;72009;51.392;10.234;2023-11-21T01:15:20;97581.97;;;3.56;100.00
66880;BME280;72009;51.392;10.234;2023-11-21T01:15:41;97588.22;;;3.56;100.00
66880;BME280;72009;51.392;10.234;2023-11-21T01:16:01;97597.16;;;3.57;100.00
66880;BME280;72009;51.392;10.234;2023-11-21T01:16:21;97591.72;;;3.57;100.00
66880;BME280;72009;51.392;10.234;2023-11-21T01:16:42;97586.28;;;3.57;100.00
66880;BME280;72009;51.392;10.234;2023-11-21T01:17:02;97589.84;;;3.57;100.00
66880;BME280;72009;51.392;10.234;2023-11-21T01:17:22;97587.41;;;3.56;100.00
66880;BME280;72009;51.392;10.234;2023-11-21T01:17:43;97593.91;;;3.55;100.00
66880;BME280;72009;51.392;10.234;2023-11-21T01:18:03;97590.66;;;3.53;100.00
66880;BME280;72009;51.392;10.234;2023-11-21T01:18:23;97592.84;;;3.51;100.00
66880;BME280;72009;51.392;10.234;2023-11-21T01:18:43;97595.03;;;3.49;100.00
66880;BME280;72009;51.392;10.234;2023-11-21T01:19:04;97598.84;;;3.48;100.00
66880;BME280;72009;51.392;10.234;2023-11-21T01:19:24;97589.03;;;3.47;100.00
66880;BME280;72009;51.392;10.234;2023-11-21T01:19:44;97592.03;;;3.45;100.00
66880;BME280;72009;51.392;10.234;2023-11-21T01:20:05;97590.44;;;3.44;100.00
66880;BME280;72009;51.392;10.234;2023-11-21T01:20:26;97596.94;;;3.43;100.00
66880;BME280;72009;51.392;10.234;2023-11-21T01:20:46;97589.06;;;3.42;100.00
66880;BME280;72009;51.392;10.234;2023-11-21T01:21:06;97594.50;;;3.42;100.00
66880;BME280;72009;51.392;10.234;2023-11-21T01:21:27;97584.97;;;3.39;100.00
66880;BME280;72009;51.392;10.234;2023-11-21T01:21:47;97595.34;;;3.37;100.00
66880;BME280;72009;51.392;10.234;2023-11-21T01:22:07;97600.78;;;3.37;100.00
66880;BME280;72009;51.392;10.234;2023-11-21T01:22:28;97596.13;;;3.37;100.00
66880;BME280;72009;51.392;10.234;2023-11-21T01:22:48;97586.63;;;3.35;100.00
66880;BME280;72009;51.392;10.234;2023-11-21T01:23:08;97593.16;;;3.34;100.00
66880;BME280;72009;51.392;10.234;2023-11-21T01:23:28;97594.25;;;3.33;100.00
66880;BME280;72009;51.392;10.234;2023-11-21T01:23:49;97598.59;;;3.34;100.00
66880;BME280;72009;51.392;10.234;2023-11-21T01:24:09;97595.88;;;3.34;100.00
66880;BME280;72009;51.392;10.234;2023-11-21T01:24:29;97591.53;;;3.33;100.00
66880;BME280;72009;51.392;10.234;2023-11-21T01:24:50;97591.53;;;3.33;100.00
66880;BME280;72009;51.392;10.234;2023-11-21T01:25:10;97588.81;;;3.33;100.00
66880;BME280;72009;51.392;10.234;2023-11-21T01:25:31;97596.16;;;3.32;100.00
66880;BME280;72009;51.392;10.234;2023-11-21T01:25:51;97593.69;;;3.31;100.00
66880;BME280;72009;51.392;10.234;2023-11-21T01:26:11;97601.84;;;3.31;100.00
66880;BME280;72009;51.392;10.234;2023-11-21T01:26:31;97594.81;;;3.30;100.00
66880;BME280;72009;51.392;10.234;2023-11-21T01:26:52;97595.59;;;3.30;100.00
66880;BME280;72009;51.392;10.234;2023-11-21T01:27:12;97593.69;;;3.31;100.00
66880;BME280;72009;51.392;10.234;2023-11-21T01:27:36;97602.69;;;3.31;100.00
66880;BME280;72009;51.392;10.234;2023-11-21T01:27:56;97599.97;;;3.31;100.00
66880;BME280;72009;51.392;10.234;2023-11-21T01:28:17;97597.25;;;3.31;100.00
66880;BME280;72009;51.392;10.234;2023-11-21T01:28:37;97594.53;;;3.31;100.00
66880;BME280;72009;51.392;10.234;2023-11-21T01:28:57;97591.53;;;3.33;100.00
66880;BME280;72009;51.392;10.234;2023-11-21T01:29:18;97599.69;;;3.33;100.00
66880;BME280;72009;51.392;10.234;2023-11-21T01:29:38;97599.69;;;3.33;100.00
66880;BME280;72009;51.392;10.234;2023-11-21T01:29:58;97599.69;;;3.33;100.00
66880;BME280;72009;51.392;10.234;2023-11-21T01:30:19;97603.22;;;3.33;100.00
66880;BME280;72009;51.392;10.234;2023-11-21T01:30:39;97603.22;;;3.33;100.00
66880;BME280;72009;51.392;10.234;2023-11-21T01:30:59;97597.78;;;3.33;100.00
66880;BME280;72009;51.392;10.234;2023-11-21T01:31:19;97598.59;;;3.34;100.00
66880;BME280;72009;51.392;10.234;2023-11-21T01:31:40;97597.78;;;3.33;100.00
66880;BME280;72009;51.392;10.234;2023-11-21T01:32:02;97602.94;;;3.35;100.00
66880;BME280;72009;51.392;10.234;2023-11-21T01:32:22;97602.94;;;3.35;100.00
66880;BME280;72009;51.392;10.234;2023-11-21T01:32:43;97607.28;;;3.36;100.00
66880;BME280;72009;51.392;10.234;2023-11-21T01:33:03;97599.94;;;3.36;100.00
66880;BME280;72009;51.392;10.234;2023-11-21T01:33:23;97604.28;;;3.37;100.00
66880;BME280;72009;51.392;10.234;2023-11-21T01:33:44;97599.66;;;3.38;100.00
66880;BME280;72009;51.392;10.234;2023-11-21T01:34:04;97604.28;;;3.37;100.00
66880;BME280;72009;51.392;10.234;2023-11-21T01:34:24;97603.22;;;3.38;100.00
66880;BME280;72009;51.392;10.234;2023-11-21T01:34:44;97607.81;;;3.38;100.00
66880;BME280;72009;51.392;10.234;2023-11-21T01:35:05;97604.28;;;3.37;100.00
66880;BME280;72009;51.392;10.234;2023-11-21T01:35:26;97602.38;;;3.38;100.00
66880;BME280;72009;51.392;10.234;2023-11-21T01:35:46;97604.28;;;3.37;100.00
66880;BME280;72009;51.392;10.234;2023-11-21T01:36:07;97598.84;;;3.37;100.00
66880;BME280;72009;51.392;10.234;2023-11-21T01:36:31;97603.50;;;3.37;100.00
66880;BME280;72009;51.392;10.234;2023-11-21T01:36:52;97602.09;;;3.39;100.00
66880;BME280;72009;51.392;10.234;2023-11-21T01:37:12;97602.38;;;3.38;100.00
66880;BME280;72009;51.392;10.234;2023-11-21T01:37:33;97604.00;;;3.39;100.00
66880;BME280;72009;51.392;10.234;2023-11-21T01:37:53;97604.81;;;3.39;100.00
66880;BME280;72009;51.392;10.234;2023-11-21T01:38:13;97605.94;;;3.38;100.00
66880;BME280;72009;51.392;10.234;2023-11-21T01:38:33;97605.94;;;3.38;100.00
66880;BME280;72009;51.392;10.234;2023-11-21T01:38:54;97608.66;;;3.38;100.00
66880;BME280;72009;51.392;10.234;2023-11-21T01:39:15;97605.38;;;3.36;100.00
66880;BME280;72009;51.392;10.234;2023-11-21T01:39:36;97610.81;;;3.36;100.00
66880;BME280;72009;51.392;10.234;2023-11-21T01:39:56;97605.38;;;3.36;100.00
66880;BME280;72009;51.392;10.234;2023-11-21T01:40:16;97614.63;;;3.35;100.00
66880;BME280;72009;51.392;10.234;2023-11-21T01:40:36;97616.53;;;3.35;100.00
66880;BME280;72009;51.392;10.234;2023-11-21T01:40:57;97607.56;;;3.34;100.00
66880;BME280;72009;51.392;10.234;2023-11-21T01:41:17;97610.28;;;3.34;100.00
66880;BME280;72009;51.392;10.234;2023-11-21T01:41:38;97610.56;;;3.33;100.00
66880;BME280;72009;51.392;10.234;2023-11-21T01:41:58;97608.91;;;3.32;100.00
66880;BME280;72009;51.392;10.234;2023-11-21T01:42:18;97608.91;;;3.32;100.00
66880;BME280;72009;51.392;10.234;2023-11-21T01:42:39;97613.28;;;3.33;100.00
66880;BME280;72009;51.392;10.234;2023-11-21T01:43:00;97606.19;;;3.32;100.00
66880;BME280;72009;51.392;10.234;2023-11-21T01:43:20;97613.56;;;3.31;100.00
66880;BME280;72009;51.392;10.234;2023-11-21T01:43:41;97608.13;;;3.31;100.00
66880;BME280;72009;51.392;10.234;2023-11-21T01:44:01;97610.00;;;3.31;100.00
66880;BME280;72009;51.392;10.234;2023-11-21T01:44:21;97610.00;;;3.31;100.00
66880;BME280;72009;51.392;10.234;2023-11-21T01:44:41;97603.47;;;3.32;100.00
66880;BME280;72009;51.392;10.234;2023-11-21T01:45:02;97612.47;;;3.32;100.00
66880;BME280;72009;51.392;10.234;2023-11-21T01:45:23;97610.56;;;3.33;100.00
66880;BME280;72009;51.392;10.234;2023-11-21T01:45:43;97609.47;;;3.34;100.00
66880;BME280;72009;51.392;10.234;2023-11-21T01:46:04;97613.00;;;3.34;100.00
66880;BME280;72009;51.392;10.234;2023-11-21T01:46:24;97613.00;;;3.34;100.00
66880;BME280;72009;51.392;10.234;2023-11-21T01:46:45;97611.09;;;3.35;100.00